KLSE/LSE METAR and TAF weather

Enter ICAO airport designator
Station Type Date Time Source
KLSE METAR 2019/02/16 16:53 UTC NOAA

KLSE 161653Z 30005KT 10SM CLR M16/M19 A3017 RMK AO2 SLP247 T11561194


Station Type Date Time Source
KLSE Decoded METAR 2019/02/16 16:53 UTC NOAA

LA CROSSE MUNICIPAL AIRPORT , WI, United States (KLSE) 43-53N 091-15W 200M
Feb 16, 2019 - 11:53 AM EST / 2019.02.16 1653 UTC
Wind: from the WNW (300 degrees) at 6 MPH (5 KT):0
Visibility: 10 mile(s):0
Sky conditions: clear
Temperature: 3.9 F (-15.6 C)
Windchill: -7 F (-22 C):2
Dew Point: -2.9 F (-19.4 C)
Relative Humidity: 72%
Pressure (altimeter): 30.17 in. Hg (1021 hPa)
ob: KLSE 161653Z 30005KT 10SM CLR M16/M19 A3017 RMK AO2 SLP247 T11561194
cycle: 17

Station Type Date Time Source
KLSE TAF 2019/02/16 18:34 UTC NOAA

TAF KLSE 161731Z 1618/1718 08005KT P6SM OVC120
FM170900 06006KT 6SM -SN OVC025
FM171100 04008KT 2SM -SN OVC015


Example: see airport list